This is the latest recevied weather packets stored in our database for station/object K7LER. If no packets are shown the sender has not sent any weather packets the latest 1 day(s).
| Time | Temp. | Humidity | Pressure | Rain* | Wind** | Luminosity | Snow |
|---|---|---|---|---|---|---|---|
| 1836274722 | 18.33° C | 62% | 1013.4 hPa | 0 mm | 0 m/s | 0 W/m² | - |
| 1836274559 | 17.78° C | 64% | 1013.4 hPa | 0 mm | 0 m/s | 0 W/m² | - |
| 1836274408 | 18.33° C | 61% | 1013.4 hPa | 0 mm | 0 m/s | 0 W/m² | - |
| 1836274259 | 18.33° C | 63% | 1013.4 hPa | 0 mm | 0 m/s | 0 W/m² | - |
| 1836274108 | 18.33° C | 61% | 1013.3 hPa | 0 mm | 0 m/s | 0 W/m² | - |
| 1778035835 | 17.22° C | 72% | 1014.8 hPa | 0 mm | 0 m/s | 18 W/m² | - |
| 1778035543 | 17.22° C | 72% | 1014.7 hPa | 0 mm | 0 m/s | 21 W/m² | - |
| 1778035235 | 17.22° C | 72% | 1014.7 hPa | 0 mm | 0 m/s | 23 W/m² | - |
| 1778034935 | 17.22° C | 71% | 1014.7 hPa | 0 mm | 0 m/s | 26 W/m² | - |
| 1778034646 | 17.22° C | 71% | 1014.8 hPa | 0 mm | 0 m/s | 28 W/m² | - |
| 1778034336 | 17.78° C | 70% | 1014.8 hPa | 0 mm | 0 m/s | 32 W/m² | - |
| 1778034035 | 17.78° C | 70% | 1014.8 hPa | 0 mm | 0 m/s | 35 W/m² | - |
| 1778033750 | 17.78° C | 69% | 1014.9 hPa | 0 mm | 0 m/s | 63 W/m² | - |
| 1778033435 | 17.78° C | 68% | 1014.9 hPa | 0 mm | 0 m/s | 100 W/m² | - |
| 1778033136 | 18.33° C | 67% | 1014.9 hPa | 0 mm | 0 m/s | 114 W/m² | - |
| 1778032842 | 18.33° C | 68% | 1014.9 hPa | 0 mm | 0 m/s | 107 W/m² | - |
| 1778032535 | 18.33° C | 68% | 1014.9 hPa | 0 mm | 0 m/s | 121 W/m² | - |
| 1778032236 | 18.33° C | 67% | 1014.9 hPa | 0 mm | 0 m/s | 148 W/m² | - |
| 1778031940 | 18.33° C | 67% | 1014.9 hPa | 0 mm | 0 m/s | 167 W/m² | - |
| 1778031635 | 18.33° C | 68% | 1014.9 hPa | 0 mm | 0 m/s | 181 W/m² | - |
| 1778031335 | 17.78° C | 68% | 1014.9 hPa | 0 mm | 0 m/s | 193 W/m² | - |
| 1778031048 | 17.78° C | 67% | 1014.9 hPa | 0 mm | 0 m/s | 134 W/m² | - |
| 1778030734 | 18.33° C | 66% | 1014.8 hPa | 0 mm | 0 m/s | 193 W/m² | - |
| 1778030435 | 18.89° C | 65% | 1014.7 hPa | 0 mm | 0 m/s | 237 W/m² | - |
| 1778030145 | 18.89° C | 66% | 1014.8 hPa | 0 mm | 0 m/s | 251 W/m² | - |
* Rain latest hour (hover to see other rain measurements)
** Current wind speed in m/s (hover to see current wind gust speed)